createdAt,value
2018-08-19T00:01:44.540Z,19.20
2018-08-19T00:04:13.414Z,19.10
2018-08-19T00:06:42.297Z,19.10
2018-08-19T00:09:14.164Z,19.10
2018-08-19T00:11:42.869Z,19.10
2018-08-19T00:14:24.853Z,18.90
2018-08-19T00:16:53.069Z,18.80
2018-08-19T00:19:20.708Z,19.00
2018-08-19T00:21:48.578Z,19.30
2018-08-19T00:24:16.372Z,19.40
2018-08-19T00:26:45.186Z,19.40
2018-08-19T00:29:13.244Z,19.30
2018-08-19T00:31:40.822Z,19.40
2018-08-19T00:34:08.585Z,19.30
2018-08-19T00:36:36.316Z,19.10
2018-08-19T00:39:07.185Z,19.00
2018-08-19T00:41:34.955Z,19.10
2018-08-19T00:44:02.665Z,19.20
2018-08-19T00:46:31.506Z,19.10
2018-08-19T00:48:59.975Z,18.90
2018-08-19T00:51:27.959Z,18.80
2018-08-19T00:53:56.077Z,18.60
2018-08-19T00:56:23.775Z,18.80
2018-08-19T00:58:51.741Z,18.70
2018-08-19T01:01:31.784Z,18.60
2018-08-19T01:03:59.575Z,18.70
2018-08-19T01:06:27.527Z,18.60
2018-08-19T01:08:56.166Z,18.50
2018-08-19T01:11:33.428Z,18.40
2018-08-19T01:14:01.552Z,18.30
2018-08-19T01:16:29.265Z,18.30
2018-08-19T01:18:59.580Z,18.30
2018-08-19T01:21:29.374Z,18.30
2018-08-19T01:23:58.677Z,18.50
2018-08-19T01:26:26.504Z,18.60
2018-08-19T01:28:55.124Z,18.50
2018-08-19T01:31:24.883Z,18.60
2018-08-19T01:33:52.681Z,18.50
2018-08-19T01:36:20.265Z,18.30
2018-08-19T01:38:48.990Z,18.20
2018-08-19T01:41:16.700Z,18.30
2018-08-19T01:43:57.093Z,18.30
2018-08-19T01:46:24.715Z,18.30
2018-08-19T01:48:52.285Z,18.10
2018-08-19T01:51:19.842Z,18.00
2018-08-19T01:53:47.420Z,18.00
2018-08-19T01:56:15.108Z,18.00
2018-08-19T01:58:45.481Z,17.90
2018-08-19T02:01:13.464Z,17.80
2018-08-19T02:03:41.072Z,17.80
2018-08-19T02:06:08.892Z,17.70
2018-08-19T02:08:36.566Z,17.90
2018-08-19T02:11:14.262Z,18.00
2018-08-19T02:13:41.997Z,17.90
2018-08-19T02:16:11.424Z,17.80
2018-08-19T02:18:39.016Z,17.70
2018-08-19T02:21:06.976Z,17.70
2018-08-19T02:23:34.605Z,17.70
2018-08-19T02:26:02.295Z,17.70
2018-08-19T02:28:29.849Z,17.80
2018-08-19T02:30:59.461Z,17.80
2018-08-19T02:33:32.437Z,17.80
2018-08-19T02:36:02.822Z,17.70
2018-08-19T02:38:30.893Z,17.60
2018-08-19T02:40:58.668Z,17.60
2018-08-19T02:43:26.376Z,17.70
2018-08-19T02:45:54.132Z,17.60
2018-08-19T02:48:40.640Z,17.70
2018-08-19T02:51:09.460Z,17.60
2018-08-19T02:53:37.164Z,17.50
2018-08-19T02:56:04.774Z,17.40
2018-08-19T02:58:32.368Z,17.50
2018-08-19T03:00:59.993Z,17.50
2018-08-19T03:03:27.549Z,17.50
2018-08-19T03:05:58.491Z,17.50
2018-08-19T03:08:26.470Z,17.40
2018-08-19T03:10:54.272Z,17.60
2018-08-19T03:13:22.019Z,17.40
2018-08-19T03:15:53.008Z,17.50
2018-08-19T03:18:20.667Z,17.50
2018-08-19T03:20:48.240Z,17.50
2018-08-19T03:23:15.920Z,17.60
2018-08-19T03:25:43.738Z,17.60
2018-08-19T03:28:11.370Z,17.40
2018-08-19T03:30:45.761Z,17.40
2018-08-19T03:33:13.314Z,17.40
2018-08-19T03:35:41.232Z,17.40
2018-08-19T03:38:12.548Z,17.30
2018-08-19T03:40:40.251Z,17.40
2018-08-19T03:43:09.549Z,17.40
2018-08-19T03:45:37.341Z,17.30
2018-08-19T03:48:06.419Z,17.20
2018-08-19T03:50:36.255Z,17.10
2018-08-19T03:53:04.187Z,17.00
2018-08-19T03:55:32.581Z,17.00
2018-08-19T03:58:04.692Z,17.20
2018-08-19T04:00:36.918Z,17.20
2018-08-19T04:03:38.183Z,17.20
2018-08-19T04:06:06.168Z,17.10
2018-08-19T04:08:39.347Z,17.10
2018-08-19T04:11:07.349Z,17.10
2018-08-19T04:13:39.781Z,17.20
2018-08-19T04:16:11.048Z,17.20
2018-08-19T04:18:40.854Z,17.20
2018-08-19T04:21:12.661Z,17.10
2018-08-19T04:23:43.091Z,17.00
2018-08-19T04:26:11.580Z,17.10
2018-08-19T04:28:40.517Z,17.00
2018-08-19T04:31:13.943Z,16.90
2018-08-19T04:33:43.283Z,16.90
2018-08-19T04:36:12.028Z,16.80
2018-08-19T04:38:39.962Z,16.80
2018-08-19T04:41:07.924Z,16.90
2018-08-19T04:43:35.878Z,17.00
2018-08-19T04:46:04.286Z,17.00
2018-08-19T04:48:31.945Z,17.00
2018-08-19T04:50:59.580Z,16.90
2018-08-19T04:53:27.275Z,17.00
2018-08-19T04:55:54.979Z,17.10
2018-08-19T04:58:22.926Z,17.10
2018-08-19T05:00:50.634Z,17.20
2018-08-19T05:03:18.476Z,17.30
2018-08-19T05:05:46.214Z,17.40
2018-08-19T05:08:14.074Z,17.40
2018-08-19T05:10:42.498Z,17.40
2018-08-19T05:13:10.971Z,17.30
2018-08-19T05:15:39.879Z,17.40
2018-08-19T05:18:07.763Z,17.40
2018-08-19T05:20:35.429Z,17.50
2018-08-19T05:23:03.087Z,17.50
2018-08-19T05:25:30.710Z,17.50
2018-08-19T05:28:02.831Z,17.40
2018-08-19T05:30:31.772Z,17.40
2018-08-19T05:33:00.210Z,17.40
2018-08-19T05:35:28.846Z,17.40
2018-08-19T05:37:56.794Z,17.60
2018-08-19T05:40:24.516Z,17.80
2018-08-19T05:42:52.179Z,17.80
2018-08-19T05:45:19.904Z,17.90
2018-08-19T05:47:59.098Z,17.80
2018-08-19T05:50:26.834Z,17.90
2018-08-19T05:52:54.621Z,17.90
2018-08-19T05:55:22.199Z,18.10
2018-08-19T05:57:49.870Z,18.20
2018-08-19T06:00:22.322Z,18.10
2018-08-19T06:02:51.065Z,18.20
2018-08-19T06:05:18.777Z,18.20
2018-08-19T06:07:50.501Z,18.20
2018-08-19T06:10:18.544Z,18.10
2018-08-19T06:12:46.190Z,18.10
2018-08-19T06:15:13.808Z,18.10
2018-08-19T06:17:41.437Z,18.20
2018-08-19T06:20:09.257Z,18.30
2018-08-19T06:22:39.114Z,18.80
2018-08-19T06:25:06.864Z,19.70
2018-08-19T06:27:43.702Z,20.90
2018-08-19T06:30:11.901Z,22.10
2018-08-19T06:32:39.639Z,23.20
2018-08-19T06:35:07.723Z,23.70
2018-08-19T06:37:35.337Z,24.20
2018-08-19T06:40:03.017Z,24.40
2018-08-19T06:42:30.605Z,24.50
2018-08-19T06:44:58.260Z,24.90
2018-08-19T06:47:25.954Z,25.00
2018-08-19T06:49:55.418Z,25.00
2018-08-19T06:52:23.955Z,24.50
2018-08-19T06:54:51.880Z,24.30
2018-08-19T06:57:19.766Z,23.80
2018-08-19T06:59:48.110Z,23.10
2018-08-19T07:02:15.784Z,22.70
2018-08-19T07:04:44.888Z,22.40
2018-08-19T07:07:13.805Z,22.00
2018-08-19T07:09:41.710Z,21.50
2018-08-19T07:12:14.710Z,21.00
2018-08-19T07:14:43.819Z,20.70
2018-08-19T07:17:11.620Z,20.50
2018-08-19T07:19:39.547Z,20.50
2018-08-19T07:22:08.126Z,20.50
2018-08-19T07:24:37.630Z,20.50
2018-08-19T07:27:07.532Z,20.50
2018-08-19T07:29:36.300Z,20.50
2018-08-19T07:32:04.426Z,20.50
2018-08-19T07:34:32.127Z,20.60
2018-08-19T07:36:59.954Z,20.70
2018-08-19T07:39:27.881Z,20.90
2018-08-19T07:41:55.748Z,21.00
2018-08-19T07:44:23.676Z,21.20
2018-08-19T07:46:51.835Z,21.10
2018-08-19T07:49:19.629Z,21.20
2018-08-19T07:51:47.338Z,21.30
2018-08-19T07:54:15.249Z,21.50
2018-08-19T07:56:43.116Z,21.50
2018-08-19T07:59:13.448Z,21.40
2018-08-19T08:01:41.392Z,21.30
2018-08-19T08:04:09.326Z,21.40
2018-08-19T08:06:37.412Z,21.50
2018-08-19T08:09:07.550Z,21.70
2018-08-19T08:11:35.735Z,21.80
2018-08-19T08:14:03.720Z,22.00
2018-08-19T08:16:36.816Z,22.30
2018-08-19T08:19:04.786Z,22.70
2018-08-19T08:21:32.590Z,22.90
2018-08-19T08:24:00.216Z,23.10
2018-08-19T08:26:28.024Z,23.10
2018-08-19T08:29:02.203Z,23.00
2018-08-19T08:31:29.921Z,22.90
2018-08-19T08:33:57.670Z,23.20
2018-08-19T08:36:25.332Z,23.30
2018-08-19T08:38:53.104Z,23.40
2018-08-19T08:41:20.862Z,23.60
2018-08-19T08:43:48.562Z,23.40
2018-08-19T08:46:16.224Z,23.30
2018-08-19T08:48:44.560Z,23.00
2018-08-19T08:51:12.249Z,23.10
2018-08-19T08:53:45.487Z,23.10
2018-08-19T08:56:14.160Z,23.10
2018-08-19T08:58:41.897Z,23.40
2018-08-19T09:01:09.676Z,23.80
2018-08-19T09:03:37.386Z,24.10
2018-08-19T09:06:18.000Z,24.30
2018-08-19T09:08:45.739Z,24.30
2018-08-19T09:11:13.560Z,24.10
2018-08-19T09:13:41.395Z,24.10
2018-08-19T09:16:09.661Z,24.10
2018-08-19T09:18:37.250Z,24.30
2018-08-19T09:21:04.953Z,24.70
2018-08-19T09:23:34.608Z,25.10
2018-08-19T09:26:02.247Z,25.50
2018-08-19T09:28:29.869Z,25.70
2018-08-19T09:30:57.458Z,25.80
2018-08-19T09:33:25.138Z,25.90
2018-08-19T09:35:52.804Z,26.00
2018-08-19T09:38:21.657Z,25.70
2018-08-19T09:40:49.670Z,25.10
2018-08-19T09:43:17.482Z,24.90
2018-08-19T09:45:45.710Z,25.00
2018-08-19T09:48:14.154Z,25.30
2018-08-19T09:50:42.585Z,25.60
2018-08-19T09:53:10.336Z,25.90
2018-08-19T09:56:11.062Z,25.60
2018-08-19T09:58:39.333Z,25.50
2018-08-19T10:01:12.943Z,25.80
2018-08-19T10:03:40.682Z,26.20
2018-08-19T10:06:08.467Z,26.60
2018-08-19T10:08:36.316Z,26.80
2018-08-19T10:11:04.140Z,26.70
2018-08-19T10:13:31.894Z,26.70
2018-08-19T10:15:59.720Z,26.70
2018-08-19T10:18:27.412Z,27.00
2018-08-19T10:20:55.286Z,27.40
2018-08-19T10:23:23.281Z,27.40
2018-08-19T10:25:51.390Z,27.10
2018-08-19T10:28:19.204Z,27.00
2018-08-19T10:30:52.730Z,27.20
2018-08-19T10:33:20.768Z,27.40
2018-08-19T10:35:48.680Z,27.60
2018-08-19T10:38:16.627Z,27.40
2018-08-19T10:40:46.842Z,27.60
2018-08-19T10:43:14.576Z,28.00
2018-08-19T10:45:42.874Z,28.30
2018-08-19T10:48:12.802Z,28.00
2018-08-19T10:50:40.747Z,27.60
2018-08-19T10:53:15.887Z,27.90
2018-08-19T10:55:44.557Z,28.40
2018-08-19T10:58:12.382Z,28.70
2018-08-19T11:00:40.415Z,28.80
2018-08-19T11:03:13.878Z,28.80
2018-08-19T11:05:42.881Z,28.60
2018-08-19T11:08:11.372Z,28.70
2018-08-19T11:10:39.248Z,28.70
2018-08-19T11:13:07.609Z,28.70
2018-08-19T11:15:45.831Z,28.70
2018-08-19T11:18:35.944Z,28.80
2018-08-19T11:21:06.770Z,29.00
2018-08-19T11:23:38.635Z,29.00
2018-08-19T11:26:06.928Z,28.70
2018-08-19T11:28:44.419Z,28.90
2018-08-19T11:31:22.546Z,29.10
2018-08-19T11:33:51.342Z,29.20
2018-08-19T11:36:19.631Z,29.20
2018-08-19T11:38:49.010Z,29.30
2018-08-19T11:41:17.126Z,29.50
2018-08-19T11:43:46.251Z,29.50
2018-08-19T11:46:14.096Z,29.50
2018-08-19T11:48:42.228Z,29.70
2018-08-19T11:51:10.151Z,29.50
2018-08-19T11:53:37.909Z,29.30
2018-08-19T11:56:06.027Z,28.70
2018-08-19T11:58:50.303Z,28.60
2018-08-19T12:01:19.304Z,28.60
2018-08-19T12:03:57.952Z,28.90
2018-08-19T12:06:27.962Z,29.10
2018-08-19T12:08:57.677Z,29.50
2018-08-19T12:11:28.268Z,29.70
2018-08-19T12:13:56.196Z,29.80
2018-08-19T12:16:27.621Z,29.90
2018-08-19T12:18:59.577Z,30.00
2018-08-19T12:21:28.230Z,29.90
2018-08-19T12:24:12.883Z,29.70
2018-08-19T12:26:42.155Z,29.70
2018-08-19T12:29:09.885Z,30.10
2018-08-19T12:31:37.510Z,30.10
2018-08-19T12:34:05.342Z,30.10
2018-08-19T12:36:33.800Z,30.40
2018-08-19T12:39:01.949Z,30.40
2018-08-19T12:41:30.714Z,30.50
2018-08-19T12:44:00.244Z,30.30
2018-08-19T12:46:27.921Z,30.20
2018-08-19T12:48:55.694Z,30.30
2018-08-19T12:51:23.417Z,30.40
2018-08-19T12:53:51.005Z,30.70
2018-08-19T12:56:20.592Z,30.60
2018-08-19T12:58:48.148Z,30.80
2018-08-19T13:01:15.733Z,30.80
2018-08-19T13:03:43.387Z,30.60
2018-08-19T13:06:10.908Z,30.30
2018-08-19T13:08:38.628Z,30.40
2018-08-19T13:11:07.193Z,30.50
2018-08-19T13:13:34.906Z,30.80
2018-08-19T13:16:02.600Z,31.10
2018-08-19T13:18:35.961Z,31.40
2018-08-19T13:21:09.337Z,31.80
2018-08-19T13:23:37.773Z,32.20
2018-08-19T13:26:05.514Z,32.90
2018-08-19T13:28:35.657Z,33.00
2018-08-19T13:31:03.578Z,32.60
2018-08-19T13:33:31.905Z,32.20
2018-08-19T13:35:59.553Z,32.00
2018-08-19T13:38:35.301Z,31.70
2018-08-19T13:41:04.497Z,32.00
2018-08-19T13:43:32.773Z,31.90
2018-08-19T13:46:00.719Z,32.10
2018-08-19T13:48:28.441Z,32.30
2018-08-19T13:50:56.410Z,32.30
2018-08-19T13:53:24.124Z,31.70
2018-08-19T13:55:51.812Z,31.30
2018-08-19T13:58:22.079Z,31.20
2018-08-19T14:00:50.052Z,31.20
2018-08-19T14:03:17.738Z,31.00
2018-08-19T14:05:45.433Z,30.90
2018-08-19T14:08:13.063Z,31.00
2018-08-19T14:10:40.895Z,30.70
2018-08-19T14:13:08.701Z,30.80
2018-08-19T14:15:36.248Z,30.80
2018-08-19T14:18:04.519Z,31.00
2018-08-19T14:20:32.194Z,31.10
2018-08-19T14:22:59.952Z,31.20
2018-08-19T14:25:33.852Z,30.80
2018-08-19T14:28:01.684Z,30.20
2018-08-19T14:30:29.721Z,30.10
2018-08-19T14:32:57.573Z,29.70
2018-08-19T14:35:25.284Z,29.70
2018-08-19T14:37:53.022Z,30.00
2018-08-19T14:40:21.162Z,30.20
2018-08-19T14:42:48.745Z,30.50
2018-08-19T14:45:16.483Z,30.70
2018-08-19T14:47:44.259Z,30.80
2018-08-19T14:50:14.595Z,30.90
2018-08-19T14:52:42.248Z,30.90
2018-08-19T14:55:10.005Z,30.70
2018-08-19T14:57:37.856Z,30.80
2018-08-19T15:00:07.796Z,30.80
2018-08-19T15:02:35.733Z,30.80
2018-08-19T15:05:03.797Z,30.90
2018-08-19T15:07:31.438Z,31.00
2018-08-19T15:09:59.271Z,31.00
2018-08-19T15:12:27.106Z,31.00
2018-08-19T15:14:58.147Z,31.00
2018-08-19T15:17:26.015Z,31.20
2018-08-19T15:19:54.208Z,31.20
2018-08-19T15:22:21.960Z,31.20
2018-08-19T15:24:50.097Z,31.00
2018-08-19T15:27:17.811Z,31.00
2018-08-19T15:29:47.493Z,31.00
2018-08-19T15:32:15.975Z,31.00
2018-08-19T15:34:43.927Z,31.00
2018-08-19T15:37:11.500Z,30.90
2018-08-19T15:39:39.139Z,30.90
2018-08-19T15:42:06.869Z,31.00
2018-08-19T15:44:34.467Z,30.90
2018-08-19T15:47:02.177Z,30.80
2018-08-19T15:49:29.805Z,30.80
2018-08-19T15:51:57.438Z,30.70
2018-08-19T15:54:25.124Z,30.70
2018-08-19T15:56:52.919Z,30.70
2018-08-19T15:59:21.096Z,30.70
2018-08-19T16:01:48.955Z,30.80
2018-08-19T16:04:21.171Z,30.70
2018-08-19T16:06:51.591Z,30.70
2018-08-19T16:09:21.727Z,30.70
2018-08-19T16:11:50.047Z,30.70
2018-08-19T16:14:27.775Z,30.70
2018-08-19T16:16:56.144Z,30.70
2018-08-19T16:19:23.865Z,30.80
2018-08-19T16:21:53.225Z,30.70
2018-08-19T16:24:20.918Z,30.70
2018-08-19T16:26:48.874Z,30.60
2018-08-19T16:29:16.515Z,30.50
2018-08-19T16:31:44.513Z,30.40
2018-08-19T16:34:12.297Z,30.30
2018-08-19T16:36:40.025Z,30.30
2018-08-19T16:39:09.287Z,30.30
2018-08-19T16:41:36.897Z,30.30
2018-08-19T16:44:04.590Z,30.20
2018-08-19T16:46:32.159Z,30.20
2018-08-19T16:48:59.840Z,30.20
2018-08-19T16:51:27.488Z,30.20
2018-08-19T16:53:55.130Z,30.10
2018-08-19T16:56:22.939Z,30.10
2018-08-19T16:58:50.557Z,30.00
2018-08-19T17:01:18.217Z,29.90
2018-08-19T17:03:45.896Z,29.90
2018-08-19T17:06:14.348Z,29.80
2018-08-19T17:08:42.776Z,29.80
2018-08-19T17:11:11.875Z,29.70
2018-08-19T17:13:39.936Z,29.70
2018-08-19T17:16:07.662Z,29.60
2018-08-19T17:18:35.500Z,29.50
2018-08-19T17:21:03.448Z,29.40
2018-08-19T17:23:32.026Z,29.40
2018-08-19T17:26:10.967Z,29.30
2018-08-19T17:28:38.625Z,29.20
2018-08-19T17:31:06.281Z,29.10
2018-08-19T17:33:33.939Z,28.90
2018-08-19T17:36:01.592Z,28.90
2018-08-19T17:38:31.092Z,28.80
2018-08-19T17:40:59.164Z,28.70
2018-08-19T17:43:32.440Z,28.70
2018-08-19T17:46:04.974Z,28.50
2018-08-19T17:48:33.697Z,28.40
2018-08-19T17:51:01.457Z,28.30
2018-08-19T17:53:29.408Z,28.30
2018-08-19T17:55:57.210Z,28.20
2018-08-19T17:58:25.708Z,28.10
2018-08-19T18:00:53.306Z,28.00
2018-08-19T18:03:21.037Z,27.90
2018-08-19T18:05:48.573Z,27.90
2018-08-19T18:08:16.363Z,27.70
2018-08-19T18:10:51.431Z,27.70
2018-08-19T18:13:19.114Z,27.60
2018-08-19T18:15:46.782Z,27.40
2018-08-19T18:18:14.467Z,27.30
2018-08-19T18:20:42.293Z,27.20
2018-08-19T18:23:16.234Z,27.10
2018-08-19T18:25:47.955Z,27.10
2018-08-19T18:28:21.433Z,27.10
2018-08-19T18:30:53.779Z,26.90
2018-08-19T18:33:22.086Z,26.70
2018-08-19T18:35:49.941Z,26.60
2018-08-19T18:38:24.577Z,26.60
2018-08-19T18:40:52.160Z,26.50
2018-08-19T18:43:19.887Z,26.50
2018-08-19T18:45:48.660Z,26.40
2018-08-19T18:48:18.172Z,26.20
2018-08-19T18:50:46.036Z,25.90
2018-08-19T18:53:13.774Z,25.90
2018-08-19T18:55:41.496Z,25.70
2018-08-19T18:58:09.299Z,25.50
2018-08-19T19:00:43.551Z,25.40
2018-08-19T19:03:11.330Z,25.20
2018-08-19T19:05:40.551Z,25.00
2018-08-19T19:08:13.303Z,24.70
2018-08-19T19:10:50.161Z,24.60
2018-08-19T19:13:20.795Z,24.50
2018-08-19T19:15:48.900Z,24.50
2018-08-19T19:18:17.389Z,24.50
2018-08-19T19:20:50.852Z,24.30
2018-08-19T19:23:20.334Z,24.20
2018-08-19T19:25:48.508Z,24.10
2018-08-19T19:28:16.166Z,24.00
2018-08-19T19:30:43.752Z,23.90
2018-08-19T19:33:12.079Z,23.80
2018-08-19T19:35:39.802Z,23.80
2018-08-19T19:38:08.287Z,23.80
2018-08-19T19:40:36.545Z,23.70
2018-08-19T19:43:04.282Z,23.80
2018-08-19T19:45:41.506Z,23.70
2018-08-19T19:48:10.114Z,23.50
2018-08-19T19:50:38.093Z,23.30
2018-08-19T19:53:08.379Z,23.40
2018-08-19T19:55:36.113Z,23.30
2018-08-19T19:58:04.004Z,23.30
2018-08-19T20:00:54.240Z,23.10
2018-08-19T20:03:22.743Z,23.00
2018-08-19T20:05:50.439Z,23.10
2018-08-19T20:08:22.733Z,23.00
2018-08-19T20:10:50.499Z,23.00
2018-08-19T20:13:18.157Z,22.90
2018-08-19T20:15:45.820Z,22.90
2018-08-19T20:18:13.428Z,22.90
2018-08-19T20:20:41.099Z,22.90
2018-08-19T20:23:14.267Z,22.80
2018-08-19T20:25:42.887Z,22.70
2018-08-19T20:28:13.044Z,22.60
2018-08-19T20:30:40.880Z,22.50
2018-08-19T20:33:16.272Z,22.40
2018-08-19T20:35:44.730Z,22.40
2018-08-19T20:38:12.671Z,22.40
2018-08-19T20:40:40.628Z,22.30
2018-08-19T20:43:13.885Z,22.30
2018-08-19T20:45:41.595Z,22.30
2018-08-19T20:48:09.405Z,22.50
2018-08-19T20:50:41.792Z,22.50
2018-08-19T20:53:09.476Z,22.40
2018-08-19T20:55:38.096Z,22.40
2018-08-19T20:58:05.949Z,22.40
2018-08-19T21:00:33.768Z,22.40
2018-08-19T21:03:01.466Z,22.30
2018-08-19T21:05:29.525Z,22.30
2018-08-19T21:08:10.213Z,22.30
2018-08-19T21:10:40.294Z,22.20
2018-08-19T21:13:09.029Z,22.10
2018-08-19T21:15:38.666Z,22.10
2018-08-19T21:18:07.176Z,21.90
2018-08-19T21:20:35.188Z,21.80
2018-08-19T21:23:03.869Z,21.80
2018-08-19T21:25:32.408Z,21.80
2018-08-19T21:28:00.268Z,21.60
2018-08-19T21:30:28.048Z,21.60
2018-08-19T21:32:56.516Z,21.70
2018-08-19T21:35:24.232Z,21.60
2018-08-19T21:37:51.898Z,21.60
2018-08-19T21:40:25.981Z,21.50
2018-08-19T21:42:55.404Z,21.50
2018-08-19T21:45:23.228Z,21.40
2018-08-19T21:47:51.093Z,21.40
2018-08-19T21:50:18.793Z,21.40
2018-08-19T21:53:03.187Z,21.20
2018-08-19T21:55:32.927Z,21.10
2018-08-19T21:58:01.322Z,21.10
2018-08-19T22:00:31.380Z,21.10
2018-08-19T22:03:05.494Z,21.20
2018-08-19T22:05:34.131Z,21.20
2018-08-19T22:08:02.903Z,21.10
2018-08-19T22:10:31.236Z,21.00
2018-08-19T22:12:59.023Z,20.90
2018-08-19T22:15:42.719Z,21.00
2018-08-19T22:18:12.829Z,20.90
2018-08-19T22:20:50.661Z,20.70
2018-08-19T22:23:18.297Z,20.70
2018-08-19T22:25:46.316Z,20.80
2018-08-19T22:28:14.550Z,20.80
2018-08-19T22:30:42.172Z,20.70
2018-08-19T22:33:10.618Z,20.70
2018-08-19T22:35:38.311Z,20.70
2018-08-19T22:38:10.509Z,20.70
2018-08-19T22:40:38.212Z,20.70
2018-08-19T22:43:07.067Z,20.60
2018-08-19T22:45:34.854Z,20.60
2018-08-19T22:48:02.628Z,20.50
2018-08-19T22:50:30.833Z,20.50
2018-08-19T22:52:58.508Z,20.40
2018-08-19T22:55:26.267Z,20.40
2018-08-19T22:57:58.848Z,20.30
2018-08-19T23:00:27.008Z,20.30
2018-08-19T23:02:54.952Z,20.30
2018-08-19T23:05:22.860Z,20.20
2018-08-19T23:07:50.573Z,20.20
2018-08-19T23:10:18.265Z,20.30
2018-08-19T23:12:45.885Z,20.30
2018-08-19T23:15:24.772Z,20.30
2018-08-19T23:17:52.488Z,20.30
2018-08-19T23:20:20.234Z,20.20
2018-08-19T23:22:48.010Z,20.00
2018-08-19T23:25:15.844Z,20.00
2018-08-19T23:27:43.625Z,20.00
2018-08-19T23:30:11.577Z,20.00
2018-08-19T23:32:39.337Z,20.00
2018-08-19T23:35:06.988Z,20.00
2018-08-19T23:37:34.652Z,19.90
2018-08-19T23:40:02.296Z,19.70
2018-08-19T23:42:30.015Z,19.70
2018-08-19T23:44:57.686Z,19.60
2018-08-19T23:47:25.313Z,19.60
2018-08-19T23:49:53.418Z,19.70
2018-08-19T23:52:21.131Z,19.70
2018-08-19T23:54:48.763Z,19.70
2018-08-19T23:57:16.541Z,19.70
2018-08-19T23:59:45.605Z,19.60
